createdAt,value
2022-10-20T00:00:41.126Z,85.93
2022-10-20T00:01:41.137Z,85.85
2022-10-20T00:02:41.167Z,86.09
2022-10-20T00:03:41.102Z,86.14
2022-10-20T00:04:41.139Z,85.98
2022-10-20T00:05:41.076Z,85.90
2022-10-20T00:06:41.106Z,85.94
2022-10-20T00:07:41.182Z,85.93
2022-10-20T00:08:41.109Z,85.85
2022-10-20T00:09:41.113Z,86.00
2022-10-20T00:10:41.055Z,85.96
2022-10-20T00:11:41.092Z,86.09
2022-10-20T00:12:41.003Z,86.07
2022-10-20T00:13:40.990Z,86.12
2022-10-20T00:14:40.978Z,86.11
2022-10-20T00:15:41.064Z,86.14
2022-10-20T00:16:40.956Z,86.05
2022-10-20T00:17:40.977Z,86.02
2022-10-20T00:18:41.020Z,86.03
2022-10-20T00:19:40.944Z,86.17
2022-10-20T00:20:40.921Z,86.16
2022-10-20T00:21:40.985Z,86.28
2022-10-20T00:22:40.902Z,86.24
2022-10-20T00:23:40.897Z,86.14
2022-10-20T00:24:40.938Z,86.03
2022-10-20T00:25:40.866Z,86.00
2022-10-20T00:26:40.921Z,85.77
2022-10-20T00:27:40.863Z,85.79
2022-10-20T00:28:40.855Z,85.91
2022-10-20T00:29:40.839Z,86.07
2022-10-20T00:30:40.841Z,86.28
2022-10-20T00:31:40.890Z,86.62
2022-10-20T00:32:40.792Z,86.69
2022-10-20T00:33:40.802Z,86.60
2022-10-20T00:34:40.771Z,86.54
2022-10-20T00:35:40.798Z,86.73
2022-10-20T00:36:40.762Z,86.71
2022-10-20T00:37:40.832Z,86.66
2022-10-20T00:38:40.729Z,86.53
2022-10-20T00:39:40.786Z,86.40
2022-10-20T00:40:40.722Z,86.26
2022-10-20T00:41:40.718Z,86.15
2022-10-20T00:42:40.745Z,85.98
2022-10-20T00:43:40.689Z,85.89
2022-10-20T00:44:40.679Z,86.12
2022-10-20T00:45:40.662Z,86.04
2022-10-20T00:46:40.706Z,85.80
2022-10-20T00:47:40.708Z,85.74
2022-10-20T00:48:40.674Z,85.77
2022-10-20T00:49:40.687Z,85.90
2022-10-20T00:50:40.630Z,86.01
2022-10-20T00:51:40.599Z,86.01
2022-10-20T00:52:40.593Z,86.12
2022-10-20T00:53:40.581Z,85.94
2022-10-20T00:54:40.660Z,85.81
2022-10-20T00:55:40.563Z,85.78
2022-10-20T00:56:40.549Z,85.86
2022-10-20T00:57:40.589Z,85.84
2022-10-20T00:58:40.532Z,85.73
2022-10-20T00:59:40.599Z,85.80
2022-10-20T01:00:40.543Z,85.84
2022-10-20T01:01:40.556Z,85.86
2022-10-20T01:02:40.541Z,85.94
2022-10-20T01:03:40.490Z,85.95
2022-10-20T01:04:40.476Z,86.18
2022-10-20T01:05:40.536Z,86.00
2022-10-20T01:06:40.445Z,85.95
2022-10-20T01:07:40.496Z,85.91
2022-10-20T01:08:40.458Z,85.79
2022-10-20T01:09:40.464Z,85.73
2022-10-20T01:10:40.413Z,85.85
2022-10-20T01:11:40.429Z,85.85
2022-10-20T01:12:40.406Z,85.81
2022-10-20T01:13:40.434Z,85.82
2022-10-20T01:14:40.389Z,85.72
2022-10-20T01:15:40.386Z,85.88
2022-10-20T01:16:40.362Z,85.98
2022-10-20T01:17:40.342Z,85.99
2022-10-20T01:18:40.381Z,85.94
2022-10-20T01:19:40.347Z,85.92
2022-10-20T01:20:40.322Z,85.97
2022-10-20T01:21:40.295Z,85.95
2022-10-20T01:22:40.327Z,85.94
2022-10-20T01:23:40.289Z,85.79
2022-10-20T01:24:40.311Z,85.87
2022-10-20T01:25:40.255Z,85.87
2022-10-20T01:26:40.273Z,86.03
2022-10-20T01:27:40.416Z,86.20
2022-10-20T01:28:40.239Z,86.25
2022-10-20T01:29:40.263Z,86.32
2022-10-20T01:30:40.271Z,86.45
2022-10-20T01:31:40.261Z,86.52
2022-10-20T01:32:40.215Z,86.51
2022-10-20T01:33:40.198Z,86.50
2022-10-20T01:34:40.175Z,86.42
2022-10-20T01:35:40.219Z,86.43
2022-10-20T01:36:40.186Z,86.41
2022-10-20T01:37:49.008Z,86.47
2022-10-20T01:38:40.132Z,86.47
2022-10-20T01:39:40.133Z,86.71
2022-10-20T01:40:40.104Z,86.74
2022-10-20T01:41:40.175Z,86.61
2022-10-20T01:42:40.302Z,86.51
2022-10-20T01:43:40.088Z,86.47
2022-10-20T01:44:40.094Z,86.42
2022-10-20T01:45:40.064Z,86.39
2022-10-20T01:46:40.075Z,86.34
2022-10-20T01:47:40.100Z,86.56
2022-10-20T01:48:40.087Z,86.51
2022-10-20T01:49:40.021Z,86.58
2022-10-20T01:50:40.059Z,86.66
2022-10-20T01:52:39.996Z,87.13
2022-10-20T01:53:40.026Z,87.05
2022-10-20T01:54:39.962Z,86.96
2022-10-20T01:55:39.959Z,86.82
2022-10-20T01:56:39.995Z,86.87
2022-10-20T01:57:39.981Z,86.95
2022-10-20T01:58:39.934Z,87.04
2022-10-20T01:59:39.974Z,87.10
2022-10-20T02:00:39.919Z,87.06
2022-10-20T02:01:39.960Z,87.07
2022-10-20T02:02:39.970Z,87.12
2022-10-20T02:03:39.962Z,87.26
2022-10-20T02:04:39.866Z,87.10
2022-10-20T02:05:39.875Z,87.19
2022-10-20T02:06:39.854Z,87.19
2022-10-20T02:07:39.829Z,87.29
2022-10-20T02:08:39.931Z,87.30
2022-10-20T02:09:39.858Z,87.42
2022-10-20T02:10:39.899Z,87.49
2022-10-20T02:11:39.804Z,87.61
2022-10-20T02:12:39.911Z,87.73
2022-10-20T02:13:39.766Z,87.89
2022-10-20T02:14:39.829Z,87.99
2022-10-20T02:15:39.773Z,88.16
2022-10-20T02:16:39.791Z,88.35
2022-10-20T02:17:39.760Z,88.46
2022-10-20T02:18:39.770Z,88.57
2022-10-20T02:19:39.715Z,88.69
2022-10-20T02:20:39.714Z,88.79
2022-10-20T02:21:39.777Z,88.89
2022-10-20T02:22:39.699Z,89.03
2022-10-20T02:23:39.668Z,89.05
2022-10-20T02:24:39.733Z,89.02
2022-10-20T02:25:39.645Z,89.05
2022-10-20T02:26:39.727Z,89.08
2022-10-20T02:27:39.651Z,89.21
2022-10-20T02:28:39.666Z,89.34
2022-10-20T02:29:39.625Z,89.39
2022-10-20T02:30:39.619Z,89.43
2022-10-20T02:31:39.594Z,89.47
2022-10-20T02:32:39.802Z,89.50
2022-10-20T02:33:39.566Z,89.53
2022-10-20T02:34:42.407Z,89.53
2022-10-20T02:35:39.635Z,89.50
2022-10-20T02:36:39.551Z,89.56
2022-10-20T02:37:39.872Z,89.71
2022-10-20T02:38:39.532Z,89.75
2022-10-20T02:39:39.522Z,89.73
2022-10-20T02:40:39.502Z,89.73
2022-10-20T02:41:39.541Z,89.66
2022-10-20T02:42:39.528Z,89.57
2022-10-20T02:43:39.481Z,89.61
2022-10-20T02:44:39.464Z,89.63
2022-10-20T02:45:39.528Z,89.63
2022-10-20T02:46:39.442Z,89.63
2022-10-20T02:47:39.785Z,89.68
2022-10-20T02:48:39.505Z,89.75
2022-10-20T02:49:39.404Z,89.77
2022-10-20T02:50:39.402Z,89.84
2022-10-20T02:51:39.456Z,89.94
2022-10-20T02:52:39.449Z,89.99
2022-10-20T02:53:39.370Z,90.01
2022-10-20T02:54:39.368Z,89.93
2022-10-20T02:55:39.351Z,89.90
2022-10-20T02:56:39.367Z,89.95
2022-10-20T02:57:39.708Z,90.04
2022-10-20T02:58:39.382Z,90.03
2022-10-20T02:59:39.370Z,90.01
2022-10-20T03:00:39.308Z,90.05
2022-10-20T03:01:39.364Z,90.07
2022-10-20T03:02:39.282Z,90.08
2022-10-20T03:03:39.317Z,90.07
2022-10-20T03:04:39.260Z,90.07
2022-10-20T03:05:39.307Z,90.05
2022-10-20T03:06:39.289Z,90.11
2022-10-20T03:07:39.331Z,90.16
2022-10-20T03:08:39.284Z,90.21
2022-10-20T03:09:39.254Z,90.25
2022-10-20T03:10:39.209Z,90.23
2022-10-20T03:11:39.198Z,90.21
2022-10-20T03:12:39.182Z,90.20
2022-10-20T03:13:39.175Z,90.21
2022-10-20T03:14:39.205Z,90.20
2022-10-20T03:15:39.190Z,90.23
2022-10-20T03:16:39.141Z,90.24
2022-10-20T03:17:39.348Z,90.28
2022-10-20T03:18:39.140Z,90.34
2022-10-20T03:19:39.103Z,90.36
2022-10-20T03:20:39.097Z,90.36
2022-10-20T03:21:39.094Z,90.39
2022-10-20T03:22:39.078Z,90.43
2022-10-20T03:23:39.113Z,90.40
2022-10-20T03:24:39.066Z,90.46
2022-10-20T03:25:39.052Z,90.52
2022-10-20T03:26:39.037Z,90.59
2022-10-20T03:27:39.328Z,90.67
2022-10-20T03:28:39.063Z,90.65
2022-10-20T03:29:39.025Z,90.62
2022-10-20T03:30:39.002Z,90.63
2022-10-20T03:31:39.038Z,90.66
2022-10-20T03:32:39.348Z,90.56
2022-10-20T03:33:39.009Z,90.52
2022-10-20T03:34:39.017Z,90.50
2022-10-20T03:35:38.969Z,90.47
2022-10-20T03:36:38.940Z,90.41
2022-10-20T03:37:38.924Z,90.38
2022-10-20T03:38:39.013Z,90.37
2022-10-20T03:39:38.933Z,90.46
2022-10-20T03:40:38.953Z,90.47
2022-10-20T03:41:39.048Z,90.46
2022-10-20T03:42:39.085Z,90.45
2022-10-20T03:43:38.859Z,90.44
2022-10-20T03:44:38.862Z,90.48
2022-10-20T03:45:38.873Z,90.49
2022-10-20T03:46:38.851Z,90.47
2022-10-20T03:47:38.900Z,90.46
2022-10-20T03:48:38.826Z,90.44
2022-10-20T03:49:38.797Z,90.53
2022-10-20T03:50:38.793Z,90.58
2022-10-20T03:51:38.825Z,90.62
2022-10-20T03:52:39.119Z,90.66
2022-10-20T03:53:38.759Z,90.69
2022-10-20T03:54:38.798Z,90.73
2022-10-20T03:55:38.746Z,90.76
2022-10-20T03:56:38.792Z,90.80
2022-10-20T03:57:39.033Z,90.87
2022-10-20T03:58:38.714Z,90.85
2022-10-20T03:59:38.697Z,90.84
2022-10-20T04:00:38.737Z,90.85
2022-10-20T04:01:38.720Z,90.88
2022-10-20T04:02:39.115Z,90.92
2022-10-20T04:03:38.656Z,90.89
2022-10-20T04:04:38.686Z,90.90
2022-10-20T04:05:38.762Z,90.93
2022-10-20T04:06:38.707Z,90.97
2022-10-20T04:07:38.623Z,91.00
2022-10-20T04:08:38.655Z,90.99
2022-10-20T04:09:38.596Z,90.98
2022-10-20T04:10:38.648Z,90.95
2022-10-20T04:11:38.631Z,91.00
2022-10-20T04:12:39.107Z,91.03
2022-10-20T04:13:38.564Z,91.04
2022-10-20T04:14:38.557Z,91.06
2022-10-20T04:15:38.543Z,91.08
2022-10-20T04:16:38.612Z,91.06
2022-10-20T04:18:38.534Z,91.06
2022-10-20T04:19:38.501Z,91.03
2022-10-20T04:20:40.706Z,91.07
2022-10-20T04:21:38.487Z,91.09
2022-10-20T04:22:38.901Z,91.14
2022-10-20T04:23:38.491Z,91.19
2022-10-20T04:24:38.496Z,91.19
2022-10-20T04:25:38.493Z,91.17
2022-10-20T04:26:38.490Z,91.16
2022-10-20T04:27:38.642Z,91.16
2022-10-20T04:28:38.416Z,91.21
2022-10-20T04:29:38.449Z,91.26
2022-10-20T04:30:38.398Z,91.27
2022-10-20T04:31:38.437Z,91.31
2022-10-20T04:32:38.370Z,91.31
2022-10-20T04:33:38.366Z,91.32
2022-10-20T04:34:38.403Z,91.30
2022-10-20T04:35:38.366Z,91.28
2022-10-20T04:36:38.364Z,91.26
2022-10-20T04:37:38.687Z,91.26
2022-10-20T04:38:38.384Z,91.28
2022-10-20T04:39:38.317Z,91.32
2022-10-20T04:40:38.290Z,91.34
2022-10-20T04:41:38.350Z,91.37
2022-10-20T04:42:38.274Z,91.41
2022-10-20T04:43:38.259Z,91.47
2022-10-20T04:44:38.252Z,91.53
2022-10-20T04:45:38.301Z,91.57
2022-10-20T04:46:38.273Z,91.65
2022-10-20T04:47:38.766Z,91.68
2022-10-20T04:48:38.221Z,91.70
2022-10-20T04:49:38.192Z,91.70
2022-10-20T04:50:38.251Z,91.72
2022-10-20T04:51:38.175Z,91.74
2022-10-20T04:52:38.234Z,91.77
2022-10-20T04:53:38.173Z,91.79
2022-10-20T04:54:38.205Z,91.83
2022-10-20T04:55:38.142Z,91.87
2022-10-20T04:56:38.136Z,91.91
2022-10-20T04:57:38.386Z,91.94
2022-10-20T04:58:38.114Z,91.98
2022-10-20T04:59:38.150Z,92.01
2022-10-20T05:00:38.125Z,92.04
2022-10-20T05:01:38.137Z,92.07
2022-10-20T05:02:38.089Z,92.08
2022-10-20T05:03:38.052Z,92.09
2022-10-20T05:04:38.096Z,92.12
2022-10-20T05:05:38.041Z,92.16
2022-10-20T05:06:38.031Z,92.16
2022-10-20T05:07:38.502Z,92.21
2022-10-20T05:08:38.068Z,92.22
2022-10-20T05:09:38.038Z,92.21
2022-10-20T05:10:37.985Z,92.21
2022-10-20T05:11:37.992Z,92.22
2022-10-20T05:12:38.400Z,92.21
2022-10-20T05:13:37.953Z,92.20
2022-10-20T05:14:38.009Z,92.17
2022-10-20T05:15:37.948Z,92.18
2022-10-20T05:16:37.930Z,92.17
2022-10-20T05:17:37.976Z,92.14
2022-10-20T05:18:37.913Z,92.11
2022-10-20T05:19:37.950Z,92.09
2022-10-20T05:20:41.333Z,92.08
2022-10-20T05:21:37.946Z,92.07
2022-10-20T05:22:38.173Z,92.07
2022-10-20T05:23:37.807Z,92.07
2022-10-20T05:24:37.883Z,92.07
2022-10-20T05:25:37.788Z,92.09
2022-10-20T05:26:37.831Z,92.09
2022-10-20T05:27:37.775Z,92.10
2022-10-20T05:28:37.761Z,92.08
2022-10-20T05:29:37.753Z,92.10
2022-10-20T05:30:37.831Z,92.11
2022-10-20T05:31:37.723Z,92.11
2022-10-20T05:32:38.100Z,92.12
2022-10-20T05:33:37.693Z,92.11
2022-10-20T05:34:37.747Z,92.09
2022-10-20T05:35:37.685Z,92.07
2022-10-20T05:36:37.677Z,92.05
2022-10-20T05:37:37.664Z,92.05
2022-10-20T05:38:37.673Z,92.07
2022-10-20T05:39:37.746Z,92.09
2022-10-20T05:40:37.632Z,92.10
2022-10-20T05:41:39.035Z,92.13
2022-10-20T05:42:37.993Z,92.17
2022-10-20T05:43:37.636Z,92.17
2022-10-20T05:44:37.638Z,92.20
2022-10-20T05:45:37.588Z,92.20
2022-10-20T05:46:37.582Z,92.22
2022-10-20T05:47:37.555Z,92.22
2022-10-20T05:48:42.832Z,92.21
2022-10-20T05:49:37.593Z,92.24
2022-10-20T05:50:37.576Z,92.22
2022-10-20T05:51:37.563Z,92.23
2022-10-20T05:52:38.115Z,92.21
2022-10-20T05:53:37.504Z,92.21
2022-10-20T05:54:37.519Z,92.22
2022-10-20T05:55:37.485Z,92.25
2022-10-20T05:56:37.483Z,92.24
2022-10-20T05:57:37.479Z,92.24
2022-10-20T05:58:37.505Z,92.24
2022-10-20T05:59:37.444Z,92.24
2022-10-20T06:00:37.435Z,92.26
2022-10-20T06:01:37.457Z,92.28
2022-10-20T06:02:37.721Z,92.27
2022-10-20T06:03:37.437Z,92.28
2022-10-20T06:04:37.473Z,92.26
2022-10-20T06:05:37.539Z,92.29
2022-10-20T06:06:37.414Z,92.27
2022-10-20T06:07:37.385Z,92.26
2022-10-20T06:08:37.580Z,92.23
2022-10-20T06:09:37.440Z,92.23
2022-10-20T06:10:37.436Z,92.24
2022-10-20T06:11:39.536Z,92.24
2022-10-20T06:12:37.645Z,92.23
2022-10-20T06:13:37.305Z,92.22
2022-10-20T06:14:37.363Z,92.21
2022-10-20T06:15:37.285Z,92.22
2022-10-20T06:16:37.279Z,92.21
2022-10-20T06:17:37.266Z,92.22
2022-10-20T06:18:37.306Z,92.22
2022-10-20T06:19:37.237Z,92.19
2022-10-20T06:20:37.231Z,92.19
2022-10-20T06:21:37.315Z,92.20
2022-10-20T06:22:37.497Z,92.19
2022-10-20T06:23:37.360Z,92.19
2022-10-20T06:24:37.241Z,92.19
2022-10-20T06:25:37.181Z,92.18
2022-10-20T06:26:37.184Z,92.17
2022-10-20T06:27:37.218Z,92.22
2022-10-20T06:28:37.150Z,92.23
2022-10-20T06:29:37.143Z,92.24
2022-10-20T06:30:37.347Z,92.25
2022-10-20T06:31:37.120Z,92.25
2022-10-20T06:32:37.343Z,92.25
2022-10-20T06:33:37.170Z,92.26
2022-10-20T06:34:37.110Z,92.27
2022-10-20T06:35:37.090Z,92.29
2022-10-20T06:36:37.085Z,92.28
2022-10-20T06:37:37.131Z,92.27
2022-10-20T06:38:37.040Z,92.28
2022-10-20T06:39:37.040Z,92.26
2022-10-20T06:40:37.026Z,92.29
2022-10-20T06:41:37.055Z,92.27
2022-10-20T06:42:37.429Z,92.28
2022-10-20T06:43:36.997Z,92.26
2022-10-20T06:44:37.002Z,92.24
2022-10-20T06:45:36.981Z,92.21
2022-10-20T06:46:37.021Z,92.18
2022-10-20T06:47:37.120Z,92.16
2022-10-20T06:48:36.945Z,92.15
2022-10-20T06:49:36.985Z,92.14
2022-10-20T06:50:36.942Z,92.13
2022-10-20T06:51:36.919Z,92.11
2022-10-20T06:52:37.191Z,92.08
2022-10-20T06:53:36.893Z,92.04
2022-10-20T06:54:36.963Z,92.03
2022-10-20T06:55:36.899Z,92.03
2022-10-20T06:56:36.860Z,91.97
2022-10-20T06:57:36.895Z,91.95
2022-10-20T06:58:36.840Z,91.92
2022-10-20T06:59:36.840Z,91.91
2022-10-20T07:00:36.860Z,91.86
2022-10-20T07:01:37.005Z,91.88
2022-10-20T07:02:37.121Z,91.85
2022-10-20T07:03:36.815Z,91.84
2022-10-20T07:04:36.809Z,91.78
2022-10-20T07:05:36.793Z,91.72
2022-10-20T07:06:36.797Z,91.69
2022-10-20T07:08:36.833Z,91.65
2022-10-20T07:09:36.787Z,91.67
2022-10-20T07:10:36.795Z,91.68
2022-10-20T07:11:36.738Z,91.71
2022-10-20T07:12:37.153Z,91.72
2022-10-20T07:13:36.788Z,91.79
2022-10-20T07:14:36.984Z,91.78
2022-10-20T07:15:36.768Z,91.78
2022-10-20T07:16:36.741Z,91.79
2022-10-20T07:17:36.895Z,91.81
2022-10-20T07:18:36.705Z,91.79
2022-10-20T07:19:36.634Z,91.76
2022-10-20T07:20:36.803Z,91.70
2022-10-20T07:21:39.136Z,91.67
2022-10-20T07:22:37.178Z,91.66
2022-10-20T07:23:36.587Z,91.64
2022-10-20T07:24:36.619Z,91.59
2022-10-20T07:25:36.572Z,91.57
2022-10-20T07:26:36.599Z,91.52
2022-10-20T07:27:36.554Z,91.50
2022-10-20T07:28:36.549Z,91.48
2022-10-20T07:29:36.580Z,91.42
2022-10-20T07:30:36.528Z,91.38
2022-10-20T07:31:36.513Z,91.36
2022-10-20T07:32:36.916Z,91.33
2022-10-20T07:33:36.509Z,91.29
2022-10-20T07:34:36.519Z,91.26
2022-10-20T07:35:36.513Z,91.19
2022-10-20T07:36:36.460Z,91.10
2022-10-20T07:37:36.787Z,91.07
2022-10-20T07:38:36.441Z,91.05
2022-10-20T07:39:36.441Z,91.03
2022-10-20T07:40:36.423Z,91.03
2022-10-20T07:41:36.503Z,90.98
2022-10-20T07:42:36.627Z,90.95
2022-10-20T07:43:36.448Z,90.96
2022-10-20T07:44:36.374Z,90.95
2022-10-20T07:45:36.374Z,90.99
2022-10-20T07:46:36.400Z,91.00
2022-10-20T07:47:38.602Z,91.05
2022-10-20T07:48:36.349Z,91.06
2022-10-20T07:49:44.017Z,91.05
2022-10-20T07:50:36.332Z,91.06
2022-10-20T07:51:36.309Z,91.12
2022-10-20T07:52:36.691Z,91.13
2022-10-20T07:53:36.341Z,91.15
2022-10-20T07:54:36.295Z,91.15
2022-10-20T07:55:38.911Z,91.15
2022-10-20T07:56:36.300Z,91.11
2022-10-20T07:57:36.318Z,91.11
2022-10-20T07:58:36.246Z,91.12
2022-10-20T07:59:36.221Z,91.15
2022-10-20T08:00:36.289Z,91.18
2022-10-20T08:01:36.279Z,91.28
2022-10-20T08:02:36.525Z,91.32
2022-10-20T08:03:36.190Z,91.32
2022-10-20T08:04:36.224Z,91.34
2022-10-20T08:05:36.210Z,91.37
2022-10-20T08:06:36.172Z,91.41
2022-10-20T08:07:36.248Z,91.42
2022-10-20T08:08:36.166Z,91.42
2022-10-20T08:09:36.195Z,91.42
2022-10-20T08:10:36.119Z,91.40
2022-10-20T08:11:36.106Z,91.35
2022-10-20T08:12:36.430Z,91.34
2022-10-20T08:13:36.083Z,91.40
2022-10-20T08:14:36.066Z,91.46
2022-10-20T08:15:36.131Z,91.45
2022-10-20T08:16:37.454Z,91.48
2022-10-20T08:17:36.146Z,91.49
2022-10-20T08:18:36.069Z,91.50
2022-10-20T08:19:37.953Z,91.50
2022-10-20T08:20:36.044Z,91.47
2022-10-20T08:21:36.014Z,91.45
2022-10-20T08:22:36.305Z,91.44
2022-10-20T08:23:35.987Z,91.46
2022-10-20T08:24:35.980Z,91.42
2022-10-20T08:25:35.966Z,91.39
2022-10-20T08:26:35.961Z,91.28
2022-10-20T08:27:36.004Z,91.19
2022-10-20T08:28:35.980Z,91.14
2022-10-20T08:29:35.925Z,91.11
2022-10-20T08:30:35.940Z,91.12
2022-10-20T08:31:35.950Z,91.14
2022-10-20T08:32:36.242Z,91.15
2022-10-20T08:33:35.885Z,91.16
2022-10-20T08:34:35.869Z,91.17
2022-10-20T08:35:35.857Z,91.21
2022-10-20T08:36:35.859Z,91.27
2022-10-20T08:37:36.193Z,91.27
2022-10-20T08:38:35.825Z,91.32
2022-10-20T08:39:35.860Z,91.31
2022-10-20T08:40:35.802Z,91.34
2022-10-20T08:41:55.449Z,91.34
2022-10-20T08:42:35.853Z,91.34
2022-10-20T08:43:35.793Z,91.24
2022-10-20T08:44:35.766Z,91.22
2022-10-20T08:45:38.379Z,91.26
2022-10-20T08:46:35.744Z,91.37
2022-10-20T08:47:36.277Z,91.47
2022-10-20T08:48:35.725Z,91.55
2022-10-20T08:49:35.721Z,91.62
2022-10-20T08:50:35.704Z,91.66
2022-10-20T08:51:35.741Z,91.65
2022-10-20T08:52:35.701Z,91.62
2022-10-20T08:53:35.672Z,91.61
2022-10-20T08:54:35.683Z,91.65
2022-10-20T08:55:35.655Z,91.69
2022-10-20T08:56:35.708Z,91.71
2022-10-20T08:57:36.495Z,91.71
2022-10-20T08:58:35.624Z,91.73
2022-10-20T08:59:39.176Z,91.72
2022-10-20T09:00:35.642Z,91.66
2022-10-20T09:01:35.718Z,91.60
2022-10-20T09:02:35.585Z,91.53
2022-10-20T09:03:35.581Z,91.48
2022-10-20T09:04:35.614Z,91.42
2022-10-20T09:05:35.617Z,91.33
2022-10-20T09:06:35.559Z,91.13
2022-10-20T09:07:35.815Z,91.05
2022-10-20T09:08:35.558Z,90.93
2022-10-20T09:09:35.508Z,90.81
2022-10-20T09:10:35.550Z,90.74
2022-10-20T09:11:35.531Z,90.67
2022-10-20T09:12:35.481Z,90.62
2022-10-20T09:13:35.598Z,90.54
2022-10-20T09:14:35.464Z,90.50
2022-10-20T09:15:35.460Z,90.41
2022-10-20T09:16:42.023Z,90.38
2022-10-20T09:17:35.736Z,90.33
2022-10-20T09:18:35.416Z,90.22
2022-10-20T09:19:35.414Z,90.20
2022-10-20T09:20:35.401Z,90.06
2022-10-20T09:21:35.384Z,89.85
2022-10-20T09:22:36.211Z,89.85
2022-10-20T09:23:41.125Z,89.88
2022-10-20T09:24:35.381Z,89.77
2022-10-20T09:25:35.417Z,89.79
2022-10-20T09:26:57.568Z,89.87
2022-10-20T09:27:35.710Z,89.97
2022-10-20T09:28:49.214Z,90.05
2022-10-20T09:29:35.316Z,90.14
2022-10-20T09:30:35.349Z,90.11
2022-10-20T09:31:35.347Z,90.10
2022-10-20T09:32:50.627Z,90.16
2022-10-20T09:33:35.319Z,90.21
2022-10-20T09:34:35.304Z,90.16
2022-10-20T09:35:35.259Z,90.13
2022-10-20T09:36:35.257Z,90.01
2022-10-20T09:37:35.337Z,89.84
2022-10-20T09:38:35.218Z,89.82
2022-10-20T09:39:35.221Z,89.74
2022-10-20T09:40:35.192Z,89.68
2022-10-20T09:41:35.190Z,89.58
2022-10-20T09:42:35.456Z,89.60
2022-10-20T09:43:35.212Z,89.47
2022-10-20T09:44:35.159Z,89.37
2022-10-20T09:45:35.175Z,89.31
2022-10-20T09:46:35.129Z,89.42
2022-10-20T09:47:35.133Z,89.18
2022-10-20T09:48:35.138Z,89.37
2022-10-20T09:49:35.168Z,89.30
2022-10-20T09:50:35.113Z,89.16
2022-10-20T09:51:35.127Z,89.01
2022-10-20T09:52:35.399Z,89.13
2022-10-20T09:53:35.114Z,89.24
2022-10-20T09:54:35.050Z,89.38
2022-10-20T09:55:35.063Z,89.38
2022-10-20T09:56:35.039Z,89.29
2022-10-20T09:57:35.046Z,89.25
2022-10-20T09:58:35.056Z,89.12
2022-10-20T09:59:35.015Z,88.80
2022-10-20T10:00:37.679Z,88.96
2022-10-20T10:01:35.010Z,89.07
2022-10-20T10:02:35.323Z,89.05
2022-10-20T10:03:34.962Z,88.91
2022-10-20T10:04:34.991Z,88.97
2022-10-20T10:05:34.958Z,88.81
2022-10-20T10:06:34.961Z,88.88
2022-10-20T10:07:34.943Z,88.73
2022-10-20T10:08:34.958Z,88.55
2022-10-20T10:09:35.002Z,88.73
2022-10-20T10:10:34.890Z,88.95
2022-10-20T10:11:34.882Z,88.88
2022-10-20T10:12:35.179Z,88.81
2022-10-20T10:13:34.902Z,88.82
2022-10-20T10:14:34.915Z,88.81
2022-10-20T10:15:34.937Z,88.75
2022-10-20T10:16:34.866Z,88.76
2022-10-20T10:17:35.121Z,88.85
2022-10-20T10:18:34.803Z,89.01
2022-10-20T10:19:34.845Z,89.07
2022-10-20T10:20:34.804Z,89.21
2022-10-20T10:21:34.831Z,89.20
2022-10-20T10:22:35.082Z,89.06
2022-10-20T10:23:34.763Z,88.84
2022-10-20T10:24:34.767Z,88.69
2022-10-20T10:25:34.779Z,88.77
2022-10-20T10:26:34.749Z,88.78
2022-10-20T10:27:34.721Z,88.81
2022-10-20T10:28:34.704Z,88.85
2022-10-20T10:29:34.698Z,88.81
2022-10-20T10:30:34.752Z,88.85
2022-10-20T10:31:34.679Z,88.68
2022-10-20T10:32:34.977Z,88.73
2022-10-20T10:33:34.655Z,88.66
2022-10-20T10:34:34.706Z,88.62
2022-10-20T10:35:34.653Z,88.59
2022-10-20T10:36:34.622Z,88.56
2022-10-20T10:37:35.270Z,88.61
2022-10-20T10:38:34.608Z,88.43
2022-10-20T10:39:34.624Z,88.00
2022-10-20T10:40:34.644Z,87.77
2022-10-20T10:41:34.578Z,87.62
2022-10-20T10:42:34.923Z,87.82
2022-10-20T10:43:35.456Z,88.05
2022-10-20T10:44:34.552Z,87.90
2022-10-20T10:45:34.580Z,88.07
2022-10-20T10:46:34.569Z,88.23
2022-10-20T10:47:37.845Z,88.13
2022-10-20T10:48:34.551Z,88.12
2022-10-20T10:49:34.649Z,88.20
2022-10-20T10:50:34.485Z,88.11
2022-10-20T10:51:34.472Z,87.67
2022-10-20T10:52:34.460Z,87.25
2022-10-20T10:53:34.457Z,87.21
2022-10-20T10:54:34.487Z,87.40
2022-10-20T10:55:48.279Z,87.23
2022-10-20T10:56:34.451Z,86.92
2022-10-20T10:57:34.668Z,87.08
2022-10-20T10:58:34.411Z,86.91
2022-10-20T10:59:34.408Z,86.76
2022-10-20T11:00:34.494Z,86.93
2022-10-20T11:01:34.378Z,86.74
2022-10-20T11:02:34.664Z,87.02
2022-10-20T11:03:37.622Z,86.86
2022-10-20T11:04:34.348Z,86.68
2022-10-20T11:05:34.350Z,86.72
2022-10-20T11:06:34.362Z,86.10
2022-10-20T11:07:34.551Z,86.05
2022-10-20T11:08:34.340Z,85.76
2022-10-20T11:09:34.333Z,85.84
2022-10-20T11:10:34.325Z,86.14
2022-10-20T11:11:34.322Z,86.50
2022-10-20T11:12:34.258Z,86.24
2022-10-20T11:13:34.250Z,85.89
2022-10-20T11:14:34.300Z,86.01
2022-10-20T11:15:34.231Z,86.04
2022-10-20T11:16:34.216Z,85.63
2022-10-20T11:17:34.483Z,85.57
2022-10-20T11:18:34.196Z,85.69
2022-10-20T11:19:34.179Z,85.44
2022-10-20T11:20:34.189Z,85.75
2022-10-20T11:21:34.162Z,85.74
2022-10-20T11:22:34.220Z,85.96
2022-10-20T11:24:34.134Z,86.14
2022-10-20T11:25:34.119Z,85.74
2022-10-20T11:26:34.136Z,85.45
2022-10-20T11:27:34.488Z,85.22
2022-10-20T11:28:34.152Z,85.28
2022-10-20T11:29:34.079Z,85.47
2022-10-20T11:30:34.078Z,85.59
2022-10-20T11:31:34.068Z,85.49
2022-10-20T11:33:35.771Z,86.04
2022-10-20T11:34:34.035Z,86.15
2022-10-20T11:35:34.018Z,86.40
2022-10-20T11:36:34.069Z,86.16
2022-10-20T11:37:34.423Z,86.26
2022-10-20T11:38:33.999Z,85.99
2022-10-20T11:39:33.982Z,86.04
2022-10-20T11:40:34.078Z,86.15
2022-10-20T11:41:34.004Z,86.23
2022-10-20T11:42:34.231Z,86.20
2022-10-20T11:43:33.949Z,86.44
2022-10-20T11:44:33.941Z,86.36
2022-10-20T11:45:33.969Z,86.28
2022-10-20T11:46:33.910Z,86.16
2022-10-20T11:47:33.945Z,86.29
2022-10-20T11:48:33.897Z,86.19
2022-10-20T11:49:33.924Z,85.94
2022-10-20T11:50:34.490Z,85.90
2022-10-20T11:51:33.861Z,86.09
2022-10-20T11:52:34.178Z,86.15
2022-10-20T11:53:33.831Z,85.92
2022-10-20T11:54:33.834Z,85.93
2022-10-20T11:55:33.885Z,86.35
2022-10-20T11:56:33.821Z,86.24
2022-10-20T11:57:33.804Z,86.64
2022-10-20T11:58:33.786Z,86.82
2022-10-20T11:59:33.774Z,87.23
2022-10-20T12:00:33.774Z,87.48
2022-10-20T12:01:33.871Z,87.68
2022-10-20T12:02:33.932Z,87.59
2022-10-20T12:03:33.734Z,87.54
2022-10-20T12:04:33.733Z,87.66
2022-10-20T12:05:33.715Z,87.34
2022-10-20T12:06:33.730Z,86.72
2022-10-20T12:07:33.769Z,86.36
2022-10-20T12:08:33.746Z,85.80
2022-10-20T12:09:33.678Z,85.03
2022-10-20T12:10:33.667Z,84.84
2022-10-20T12:11:33.664Z,84.93
2022-10-20T12:12:33.854Z,84.70
2022-10-20T12:13:33.685Z,84.29
2022-10-20T12:14:33.631Z,84.20
2022-10-20T12:15:33.611Z,84.21
2022-10-20T12:16:33.673Z,83.57
2022-10-20T12:17:33.587Z,83.20
2022-10-20T12:18:33.599Z,82.76
2022-10-20T12:19:33.630Z,82.80
2022-10-20T12:20:33.572Z,82.33
2022-10-20T12:21:34.482Z,80.83
2022-10-20T12:22:33.726Z,80.73
2022-10-20T12:23:33.544Z,81.58
2022-10-20T12:24:33.523Z,81.67
2022-10-20T12:25:33.566Z,81.58
2022-10-20T12:26:33.548Z,81.42
2022-10-20T12:27:33.489Z,81.30
2022-10-20T12:28:33.516Z,81.13
2022-10-20T12:29:33.467Z,80.71
2022-10-20T12:30:33.478Z,81.33
2022-10-20T12:31:33.551Z,81.87
2022-10-20T12:32:33.593Z,81.49
2022-10-20T12:33:33.427Z,81.67
2022-10-20T12:34:33.425Z,81.46
2022-10-20T12:35:33.454Z,81.18
2022-10-20T12:36:33.404Z,81.08
2022-10-20T12:37:33.511Z,81.54
2022-10-20T12:38:33.427Z,81.78
2022-10-20T12:39:33.422Z,82.06
2022-10-20T12:40:33.402Z,81.89
2022-10-20T12:41:33.400Z,81.60
2022-10-20T12:42:33.389Z,81.29
2022-10-20T12:43:33.335Z,81.55
2022-10-20T12:44:33.324Z,81.41
2022-10-20T12:45:33.319Z,81.41
2022-10-20T12:46:33.983Z,80.95
2022-10-20T12:47:33.435Z,80.85
2022-10-20T12:48:33.335Z,80.68
2022-10-20T12:49:33.368Z,80.10
2022-10-20T12:50:33.276Z,80.48
2022-10-20T12:51:33.293Z,80.06
2022-10-20T12:52:33.248Z,80.38
2022-10-20T12:53:33.229Z,80.46
2022-10-20T12:54:33.274Z,80.43
2022-10-20T12:55:35.046Z,80.18
2022-10-20T12:56:33.213Z,80.30
2022-10-20T12:57:33.181Z,80.24